sensor_id;sensor_type;location;lat;lon;timestamp;P1;durP1;ratioP1;P2;durP2;ratioP2
35150;SDS011;55720;51.972;4.624;2023-03-31T00:01:06;12.50;;;2.13;;
35150;SDS011;55720;51.972;4.624;2023-03-31T00:03:32;15.10;;;2.25;;
35150;SDS011;55720;51.972;4.624;2023-03-31T00:05:58;16.42;;;2.60;;
35150;SDS011;55720;51.972;4.624;2023-03-31T00:08:25;16.33;;;2.63;;
35150;SDS011;55720;51.972;4.624;2023-03-31T00:10:56;15.32;;;2.53;;
35150;SDS011;55720;51.972;4.624;2023-03-31T00:13:24;16.52;;;3.08;;
35150;SDS011;55720;51.972;4.624;2023-03-31T00:15:54;18.48;;;2.92;;
35150;SDS011;55720;51.972;4.624;2023-03-31T00:18:21;15.10;;;2.28;;
35150;SDS011;55720;51.972;4.624;2023-03-31T00:20:46;17.05;;;2.60;;
35150;SDS011;55720;51.972;4.624;2023-03-31T00:23:12;15.75;;;2.85;;
35150;SDS011;55720;51.972;4.624;2023-03-31T00:25:38;13.70;;;2.40;;
35150;SDS011;55720;51.972;4.624;2023-03-31T00:28:05;16.77;;;2.63;;
35150;SDS011;55720;51.972;4.624;2023-03-31T00:30:30;11.02;;;2.30;;
35150;SDS011;55720;51.972;4.624;2023-03-31T00:32:56;13.60;;;2.78;;
35150;SDS011;55720;51.972;4.624;2023-03-31T00:35:21;11.70;;;2.70;;
35150;SDS011;55720;51.972;4.624;2023-03-31T00:37:46;11.82;;;2.65;;
35150;SDS011;55720;51.972;4.624;2023-03-31T00:40:12;12.60;;;3.55;;
35150;SDS011;55720;51.972;4.624;2023-03-31T00:42:38;13.80;;;2.30;;
35150;SDS011;55720;51.972;4.624;2023-03-31T00:47:46;13.60;;;2.25;;
35150;SDS011;55720;51.972;4.624;2023-03-31T00:50:17;8.98;;;2.45;;
35150;SDS011;55720;51.972;4.624;2023-03-31T00:55:19;9.30;;;2.60;;
35150;SDS011;55720;51.972;4.624;2023-03-31T00:57:48;16.35;;;2.40;;
35150;SDS011;55720;51.972;4.624;2023-03-31T01:00:17;9.70;;;2.25;;
35150;SDS011;55720;51.972;4.624;2023-03-31T01:02:47;10.45;;;2.33;;
35150;SDS011;55720;51.972;4.624;2023-03-31T01:05:24;9.07;;;2.65;;
35150;SDS011;55720;51.972;4.624;2023-03-31T01:07:51;9.27;;;1.90;;
35150;SDS011;55720;51.972;4.624;2023-03-31T01:10:19;12.57;;;2.22;;
35150;SDS011;55720;51.972;4.624;2023-03-31T01:12:46;15.43;;;2.17;;
35150;SDS011;55720;51.972;4.624;2023-03-31T01:15:15;12.52;;;2.40;;
35150;SDS011;55720;51.972;4.624;2023-03-31T01:17:40;17.45;;;2.97;;
35150;SDS011;55720;51.972;4.624;2023-03-31T01:25:52;13.98;;;2.88;;
35150;SDS011;55720;51.972;4.624;2023-03-31T01:45:36;11.23;;;1.90;;
35150;SDS011;55720;51.972;4.624;2023-03-31T01:48:13;12.80;;;2.47;;
35150;SDS011;55720;51.972;4.624;2023-03-31T01:51:01;14.98;;;2.83;;
35150;SDS011;55720;51.972;4.624;2023-03-31T01:56:18;10.93;;;2.35;;
35150;SDS011;55720;51.972;4.624;2023-03-31T01:58:55;12.85;;;1.90;;
35150;SDS011;55720;51.972;4.624;2023-03-31T02:04:06;17.45;;;2.38;;
35150;SDS011;55720;51.972;4.624;2023-03-31T02:06:34;14.55;;;2.53;;
35150;SDS011;55720;51.972;4.624;2023-03-31T02:09:09;15.30;;;2.40;;
35150;SDS011;55720;51.972;4.624;2023-03-31T02:11:37;16.23;;;2.17;;
35150;SDS011;55720;51.972;4.624;2023-03-31T02:14:07;11.05;;;2.42;;
35150;SDS011;55720;51.972;4.624;2023-03-31T02:16:36;15.50;;;2.30;;
35150;SDS011;55720;51.972;4.624;2023-03-31T02:19:05;15.52;;;2.10;;
35150;SDS011;55720;51.972;4.624;2023-03-31T02:21:35;13.40;;;2.33;;
35150;SDS011;55720;51.972;4.624;2023-03-31T02:24:05;16.63;;;2.45;;
35150;SDS011;55720;51.972;4.624;2023-03-31T02:26:48;9.75;;;2.38;;
35150;SDS011;55720;51.972;4.624;2023-03-31T02:29:19;12.77;;;2.80;;
35150;SDS011;55720;51.972;4.624;2023-03-31T02:34:25;14.25;;;2.70;;
35150;SDS011;55720;51.972;4.624;2023-03-31T02:36:51;14.57;;;2.88;;
35150;SDS011;55720;51.972;4.624;2023-03-31T02:39:17;10.88;;;2.30;;
35150;SDS011;55720;51.972;4.624;2023-03-31T02:41:47;12.15;;;2.55;;
35150;SDS011;55720;51.972;4.624;2023-03-31T02:44:13;13.50;;;2.13;;
35150;SDS011;55720;51.972;4.624;2023-03-31T02:46:40;23.67;;;2.85;;
35150;SDS011;55720;51.972;4.624;2023-03-31T02:49:06;10.23;;;2.30;;
35150;SDS011;55720;51.972;4.624;2023-03-31T02:52:11;14.75;;;2.72;;
35150;SDS011;55720;51.972;4.624;2023-03-31T03:06:00;9.45;;;2.03;;
35150;SDS011;55720;51.972;4.624;2023-03-31T03:16:57;8.88;;;2.00;;
35150;SDS011;55720;51.972;4.624;2023-03-31T03:19:26;5.60;;;2.08;;
35150;SDS011;55720;51.972;4.624;2023-03-31T03:21:52;8.50;;;2.03;;
35150;SDS011;55720;51.972;4.624;2023-03-31T03:24:17;7.63;;;1.52;;
35150;SDS011;55720;51.972;4.624;2023-03-31T03:26:43;11.80;;;1.45;;
35150;SDS011;55720;51.972;4.624;2023-03-31T03:29:10;7.05;;;1.95;;
35150;SDS011;55720;51.972;4.624;2023-03-31T03:34:06;9.73;;;1.60;;
35150;SDS011;55720;51.972;4.624;2023-03-31T03:36:33;5.60;;;1.45;;
35150;SDS011;55720;51.972;4.624;2023-03-31T03:39:00;5.38;;;1.65;;
35150;SDS011;55720;51.972;4.624;2023-03-31T04:20:10;16.33;;;3.45;;
35150;SDS011;55720;51.972;4.624;2023-03-31T04:22:37;17.52;;;3.42;;
35150;SDS011;55720;51.972;4.624;2023-03-31T04:25:06;16.02;;;3.65;;
35150;SDS011;55720;51.972;4.624;2023-03-31T04:27:34;13.63;;;3.47;;
35150;SDS011;55720;51.972;4.624;2023-03-31T04:30:00;16.23;;;3.63;;
35150;SDS011;55720;51.972;4.624;2023-03-31T04:32:25;16.90;;;3.30;;
35150;SDS011;55720;51.972;4.624;2023-03-31T04:34:52;12.57;;;3.05;;
35150;SDS011;55720;51.972;4.624;2023-03-31T04:37:27;9.43;;;2.83;;
35150;SDS011;55720;51.972;4.624;2023-03-31T04:50:19;13.77;;;2.63;;
35150;SDS011;55720;51.972;4.624;2023-03-31T06:13:19;8.35;;;1.73;;
35150;SDS011;55720;51.972;4.624;2023-03-31T06:15:55;7.32;;;1.70;;
35150;SDS011;55720;51.972;4.624;2023-03-31T06:18:21;8.38;;;1.70;;
35150;SDS011;55720;51.972;4.624;2023-03-31T06:20:47;5.35;;;1.70;;
35150;SDS011;55720;51.972;4.624;2023-03-31T06:23:12;4.72;;;1.33;;
35150;SDS011;55720;51.972;4.624;2023-03-31T06:25:38;5.30;;;1.75;;
35150;SDS011;55720;51.972;4.624;2023-03-31T06:28:03;6.70;;;1.30;;
35150;SDS011;55720;51.972;4.624;2023-03-31T06:30:30;5.85;;;1.30;;
35150;SDS011;55720;51.972;4.624;2023-03-31T06:32:56;7.55;;;1.45;;
35150;SDS011;55720;51.972;4.624;2023-03-31T06:35:21;2.42;;;1.17;;
35150;SDS011;55720;51.972;4.624;2023-03-31T06:37:46;3.70;;;1.50;;
35150;SDS011;55720;51.972;4.624;2023-03-31T06:40:12;5.35;;;1.30;;
35150;SDS011;55720;51.972;4.624;2023-03-31T06:42:37;8.93;;;1.58;;
35150;SDS011;55720;51.972;4.624;2023-03-31T06:45:02;2.03;;;0.90;;
35150;SDS011;55720;51.972;4.624;2023-03-31T06:47:28;3.30;;;1.02;;
35150;SDS011;55720;51.972;4.624;2023-03-31T06:49:53;3.65;;;1.15;;
35150;SDS011;55720;51.972;4.624;2023-03-31T06:52:19;5.95;;;1.25;;
35150;SDS011;55720;51.972;4.624;2023-03-31T06:54:44;3.22;;;0.93;;
35150;SDS011;55720;51.972;4.624;2023-03-31T06:57:09;7.57;;;1.33;;
35150;SDS011;55720;51.972;4.624;2023-03-31T06:59:35;3.40;;;1.40;;
35150;SDS011;55720;51.972;4.624;2023-03-31T07:02:00;4.80;;;2.00;;
35150;SDS011;55720;51.972;4.624;2023-03-31T07:04:26;3.42;;;1.98;;
35150;SDS011;55720;51.972;4.624;2023-03-31T07:06:51;6.70;;;1.90;;
35150;SDS011;55720;51.972;4.624;2023-03-31T07:09:16;4.57;;;1.70;;
35150;SDS011;55720;51.972;4.624;2023-03-31T07:11:42;4.13;;;2.15;;
35150;SDS011;55720;51.972;4.624;2023-03-31T07:14:08;3.40;;;2.00;;
35150;SDS011;55720;51.972;4.624;2023-03-31T07:16:34;8.98;;;2.50;;
35150;SDS011;55720;51.972;4.624;2023-03-31T07:21:33;7.28;;;2.40;;
35150;SDS011;55720;51.972;4.624;2023-03-31T07:23:59;10.43;;;2.42;;
35150;SDS011;55720;51.972;4.624;2023-03-31T07:26:24;8.02;;;3.08;;
35150;SDS011;55720;51.972;4.624;2023-03-31T07:28:51;10.45;;;2.78;;
35150;SDS011;55720;51.972;4.624;2023-03-31T07:31:16;10.52;;;2.50;;
35150;SDS011;55720;51.972;4.624;2023-03-31T07:33:42;6.00;;;2.90;;
35150;SDS011;55720;51.972;4.624;2023-03-31T07:36:08;12.00;;;2.75;;
35150;SDS011;55720;51.972;4.624;2023-03-31T07:38:34;9.55;;;2.47;;
35150;SDS011;55720;51.972;4.624;2023-03-31T07:41:00;14.65;;;2.83;;
35150;SDS011;55720;51.972;4.624;2023-03-31T07:43:25;19.05;;;3.83;;
35150;SDS011;55720;51.972;4.624;2023-03-31T07:45:51;11.82;;;2.50;;
35150;SDS011;55720;51.972;4.624;2023-03-31T07:48:16;14.15;;;3.15;;
35150;SDS011;55720;51.972;4.624;2023-03-31T07:50:41;11.95;;;2.80;;
35150;SDS011;55720;51.972;4.624;2023-03-31T08:18:14;11.82;;;2.42;;
35150;SDS011;55720;51.972;4.624;2023-03-31T08:20:39;13.02;;;2.17;;
35150;SDS011;55720;51.972;4.624;2023-03-31T08:23:05;10.65;;;2.40;;
35150;SDS011;55720;51.972;4.624;2023-03-31T08:25:33;5.43;;;2.38;;
35150;SDS011;55720;51.972;4.624;2023-03-31T08:27:58;13.27;;;2.20;;
35150;SDS011;55720;51.972;4.624;2023-03-31T08:30:24;9.38;;;2.83;;
35150;SDS011;55720;51.972;4.624;2023-03-31T08:32:49;11.75;;;3.22;;
35150;SDS011;55720;51.972;4.624;2023-03-31T08:35:15;16.42;;;3.13;;
35150;SDS011;55720;51.972;4.624;2023-03-31T08:37:40;11.88;;;3.08;;
35150;SDS011;55720;51.972;4.624;2023-03-31T08:40:06;14.85;;;3.15;;
35150;SDS011;55720;51.972;4.624;2023-03-31T08:42:46;11.63;;;2.78;;
35150;SDS011;55720;51.972;4.624;2023-03-31T08:47:46;17.23;;;2.78;;
35150;SDS011;55720;51.972;4.624;2023-03-31T08:50:16;12.10;;;2.90;;
35150;SDS011;55720;51.972;4.624;2023-03-31T08:52:49;11.35;;;2.28;;
35150;SDS011;55720;51.972;4.624;2023-03-31T08:55:33;22.73;;;3.00;;
35150;SDS011;55720;51.972;4.624;2023-03-31T08:58:28;16.05;;;2.67;;
35150;SDS011;55720;51.972;4.624;2023-03-31T09:03:55;16.13;;;2.58;;
35150;SDS011;55720;51.972;4.624;2023-03-31T09:06:52;12.27;;;2.30;;
35150;SDS011;55720;51.972;4.624;2023-03-31T09:12:19;20.02;;;2.83;;
35150;SDS011;55720;51.972;4.624;2023-03-31T09:14:51;21.10;;;2.85;;
35150;SDS011;55720;51.972;4.624;2023-03-31T09:17:26;16.33;;;2.80;;
35150;SDS011;55720;51.972;4.624;2023-03-31T09:19:56;12.50;;;2.47;;
35150;SDS011;55720;51.972;4.624;2023-03-31T09:22:32;13.50;;;2.85;;
35150;SDS011;55720;51.972;4.624;2023-03-31T09:25:12;17.23;;;2.83;;
35150;SDS011;55720;51.972;4.624;2023-03-31T09:27:50;15.77;;;2.88;;
35150;SDS011;55720;51.972;4.624;2023-03-31T09:30:23;11.43;;;2.47;;
35150;SDS011;55720;51.972;4.624;2023-03-31T09:32:52;23.40;;;2.63;;
35150;SDS011;55720;51.972;4.624;2023-03-31T09:35:28;17.73;;;3.05;;
35150;SDS011;55720;51.972;4.624;2023-03-31T09:37:58;16.73;;;3.13;;
35150;SDS011;55720;51.972;4.624;2023-03-31T09:40:24;13.73;;;2.60;;
35150;SDS011;55720;51.972;4.624;2023-03-31T09:43:00;10.98;;;2.70;;
35150;SDS011;55720;51.972;4.624;2023-03-31T09:45:26;14.63;;;2.33;;
35150;SDS011;55720;51.972;4.624;2023-03-31T09:48:02;15.10;;;2.83;;
35150;SDS011;55720;51.972;4.624;2023-03-31T09:50:32;12.43;;;2.30;;
35150;SDS011;55720;51.972;4.624;2023-03-31T09:53:06;16.02;;;2.90;;
35150;SDS011;55720;51.972;4.624;2023-03-31T09:55:43;12.32;;;2.42;;
35150;SDS011;55720;51.972;4.624;2023-03-31T09:58:14;16.73;;;2.60;;
35150;SDS011;55720;51.972;4.624;2023-03-31T10:00:41;17.45;;;2.08;;
35150;SDS011;55720;51.972;4.624;2023-03-31T10:03:09;21.73;;;2.72;;
35150;SDS011;55720;51.972;4.624;2023-03-31T10:05:38;13.00;;;2.30;;
35150;SDS011;55720;51.972;4.624;2023-03-31T10:10:44;10.45;;;2.28;;
35150;SDS011;55720;51.972;4.624;2023-03-31T10:13:10;13.23;;;2.55;;
35150;SDS011;55720;51.972;4.624;2023-03-31T10:15:41;9.75;;;2.33;;
35150;SDS011;55720;51.972;4.624;2023-03-31T10:18:16;16.77;;;2.45;;
35150;SDS011;55720;51.972;4.624;2023-03-31T10:20:44;16.65;;;2.90;;
35150;SDS011;55720;51.972;4.624;2023-03-31T10:23:16;24.40;;;3.22;;
35150;SDS011;55720;51.972;4.624;2023-03-31T10:25:48;11.93;;;2.22;;
35150;SDS011;55720;51.972;4.624;2023-03-31T10:28:16;18.35;;;3.08;;
35150;SDS011;55720;51.972;4.624;2023-03-31T10:30:53;14.13;;;3.15;;
35150;SDS011;55720;51.972;4.624;2023-03-31T10:33:23;20.48;;;2.65;;
35150;SDS011;55720;51.972;4.624;2023-03-31T10:36:06;8.25;;;1.88;;
35150;SDS011;55720;51.972;4.624;2023-03-31T10:38:38;14.93;;;2.42;;
35150;SDS011;55720;51.972;4.624;2023-03-31T10:41:09;20.52;;;2.45;;
35150;SDS011;55720;51.972;4.624;2023-03-31T10:43:39;13.18;;;2.20;;
35150;SDS011;55720;51.972;4.624;2023-03-31T10:51:50;19.30;;;2.47;;
35150;SDS011;55720;51.972;4.624;2023-03-31T10:54:20;14.50;;;2.28;;
35150;SDS011;55720;51.972;4.624;2023-03-31T10:56:46;19.48;;;2.50;;
35150;SDS011;55720;51.972;4.624;2023-03-31T11:10:16;11.32;;;2.05;;
35150;SDS011;55720;51.972;4.624;2023-03-31T11:26:32;8.25;;;1.70;;
35150;SDS011;55720;51.972;4.624;2023-03-31T11:29:24;8.80;;;1.90;;
35150;SDS011;55720;51.972;4.624;2023-03-31T11:35:21;7.35;;;1.60;;
35150;SDS011;55720;51.972;4.624;2023-03-31T11:41:09;8.40;;;1.40;;
35150;SDS011;55720;51.972;4.624;2023-03-31T11:43:43;7.50;;;1.55;;
35150;SDS011;55720;51.972;4.624;2023-03-31T11:56:53;12.63;;;1.30;;
35150;SDS011;55720;51.972;4.624;2023-03-31T11:59:20;5.10;;;1.08;;
35150;SDS011;55720;51.972;4.624;2023-03-31T12:01:53;5.00;;;1.00;;
35150;SDS011;55720;51.972;4.624;2023-03-31T12:04:47;8.40;;;1.42;;
35150;SDS011;55720;51.972;4.624;2023-03-31T12:09:51;5.68;;;1.20;;
35150;SDS011;55720;51.972;4.624;2023-03-31T12:12:31;9.35;;;1.65;;
35150;SDS011;55720;51.972;4.624;2023-03-31T12:15:12;12.95;;;1.92;;
35150;SDS011;55720;51.972;4.624;2023-03-31T12:17:46;10.88;;;1.77;;
35150;SDS011;55720;51.972;4.624;2023-03-31T12:20:21;12.93;;;1.90;;
35150;SDS011;55720;51.972;4.624;2023-03-31T12:22:52;11.90;;;2.30;;
35150;SDS011;55720;51.972;4.624;2023-03-31T12:25:20;12.23;;;2.20;;
35150;SDS011;55720;51.972;4.624;2023-03-31T12:27:55;11.73;;;2.05;;
35150;SDS011;55720;51.972;4.624;2023-03-31T12:30:26;6.78;;;1.58;;
35150;SDS011;55720;51.972;4.624;2023-03-31T12:41:58;14.00;;;2.10;;
35150;SDS011;55720;51.972;4.624;2023-03-31T12:52:06;13.82;;;2.28;;
35150;SDS011;55720;51.972;4.624;2023-03-31T12:57:21;10.20;;;2.45;;
35150;SDS011;55720;51.972;4.624;2023-03-31T13:00:14;9.43;;;1.75;;
35150;SDS011;55720;51.972;4.624;2023-03-31T13:02:44;10.98;;;1.33;;
35150;SDS011;55720;51.972;4.624;2023-03-31T13:08:07;4.78;;;1.00;;
35150;SDS011;55720;51.972;4.624;2023-03-31T13:13:22;2.65;;;1.17;;
35150;SDS011;55720;51.972;4.624;2023-03-31T13:15:53;7.20;;;1.30;;
35150;SDS011;55720;51.972;4.624;2023-03-31T13:18:20;4.70;;;1.10;;
35150;SDS011;55720;51.972;4.624;2023-03-31T13:20:57;4.20;;;1.05;;
35150;SDS011;55720;51.972;4.624;2023-03-31T13:23:24;9.60;;;1.45;;
35150;SDS011;55720;51.972;4.624;2023-03-31T13:25:53;8.38;;;1.20;;
35150;SDS011;55720;51.972;4.624;2023-03-31T13:30:46;4.05;;;1.20;;
35150;SDS011;55720;51.972;4.624;2023-03-31T13:33:20;9.15;;;1.70;;
35150;SDS011;55720;51.972;4.624;2023-03-31T13:35:54;10.23;;;1.50;;
35150;SDS011;55720;51.972;4.624;2023-03-31T13:43:56;6.50;;;1.33;;
35150;SDS011;55720;51.972;4.624;2023-03-31T13:52:08;5.00;;;1.80;;
35150;SDS011;55720;51.972;4.624;2023-03-31T14:01:03;6.03;;;1.52;;
35150;SDS011;55720;51.972;4.624;2023-03-31T14:03:34;6.70;;;1.55;;
35150;SDS011;55720;51.972;4.624;2023-03-31T14:09:05;4.40;;;1.20;;
35150;SDS011;55720;51.972;4.624;2023-03-31T14:11:35;4.63;;;1.50;;
35150;SDS011;55720;51.972;4.624;2023-03-31T14:14:11;8.30;;;1.50;;
35150;SDS011;55720;51.972;4.624;2023-03-31T14:16:40;3.90;;;1.10;;
35150;SDS011;55720;51.972;4.624;2023-03-31T14:38:49;4.70;;;1.00;;
35150;SDS011;55720;51.972;4.624;2023-03-31T14:41:19;6.05;;;1.42;;
35150;SDS011;55720;51.972;4.624;2023-03-31T14:43:53;6.93;;;1.27;;
35150;SDS011;55720;51.972;4.624;2023-03-31T14:46:21;4.65;;;1.30;;
35150;SDS011;55720;51.972;4.624;2023-03-31T14:48:47;5.05;;;0.95;;
35150;SDS011;55720;51.972;4.624;2023-03-31T14:51:15;2.70;;;1.00;;
35150;SDS011;55720;51.972;4.624;2023-03-31T14:53:54;4.40;;;1.02;;
35150;SDS011;55720;51.972;4.624;2023-03-31T14:56:45;7.15;;;1.10;;
35150;SDS011;55720;51.972;4.624;2023-03-31T14:59:14;8.00;;;1.10;;
35150;SDS011;55720;51.972;4.624;2023-03-31T15:01:45;4.38;;;1.33;;
35150;SDS011;55720;51.972;4.624;2023-03-31T15:04:12;5.05;;;0.98;;
35150;SDS011;55720;51.972;4.624;2023-03-31T15:06:41;6.63;;;1.02;;
35150;SDS011;55720;51.972;4.624;2023-03-31T15:09:13;6.90;;;1.13;;
35150;SDS011;55720;51.972;4.624;2023-03-31T15:11:58;8.23;;;1.45;;
35150;SDS011;55720;51.972;4.624;2023-03-31T15:14:32;5.63;;;1.27;;
35150;SDS011;55720;51.972;4.624;2023-03-31T15:17:01;4.00;;;1.00;;
35150;SDS011;55720;51.972;4.624;2023-03-31T15:19:31;4.18;;;0.98;;
35150;SDS011;55720;51.972;4.624;2023-03-31T15:22:08;7.05;;;1.80;;
35150;SDS011;55720;51.972;4.624;2023-03-31T15:24:38;5.97;;;1.40;;
35150;SDS011;55720;51.972;4.624;2023-03-31T15:27:14;4.05;;;1.02;;
35150;SDS011;55720;51.972;4.624;2023-03-31T15:32:16;5.28;;;1.45;;
35150;SDS011;55720;51.972;4.624;2023-03-31T15:34:49;4.22;;;0.82;;
35150;SDS011;55720;51.972;4.624;2023-03-31T15:37:15;7.50;;;1.20;;
35150;SDS011;55720;51.972;4.624;2023-03-31T15:39:45;5.73;;;2.03;;
35150;SDS011;55720;51.972;4.624;2023-03-31T15:42:12;2.67;;;1.02;;
35150;SDS011;55720;51.972;4.624;2023-03-31T15:44:42;3.83;;;1.20;;
35150;SDS011;55720;51.972;4.624;2023-03-31T15:47:20;10.13;;;1.42;;
35150;SDS011;55720;51.972;4.624;2023-03-31T15:49:54;4.07;;;0.82;;
35150;SDS011;55720;51.972;4.624;2023-03-31T15:53:18;2.75;;;1.20;;
35150;SDS011;55720;51.972;4.624;2023-03-31T15:57:47;5.22;;;1.42;;
35150;SDS011;55720;51.972;4.624;2023-03-31T16:03:16;4.40;;;1.20;;
35150;SDS011;55720;51.972;4.624;2023-03-31T16:08:23;6.05;;;1.50;;
35150;SDS011;55720;51.972;4.624;2023-03-31T16:10:53;4.32;;;1.60;;
35150;SDS011;55720;51.972;4.624;2023-03-31T16:13:22;3.40;;;1.27;;
35150;SDS011;55720;51.972;4.624;2023-03-31T16:15:48;5.22;;;1.63;;
35150;SDS011;55720;51.972;4.624;2023-03-31T16:18:23;1.20;;;1.10;;
35150;SDS011;55720;51.972;4.624;2023-03-31T16:21:00;5.07;;;1.80;;
35150;SDS011;55720;51.972;4.624;2023-03-31T16:23:29;4.75;;;2.10;;
35150;SDS011;55720;51.972;4.624;2023-03-31T16:25:58;3.15;;;1.67;;
35150;SDS011;55720;51.972;4.624;2023-03-31T16:28:36;4.00;;;1.33;;
35150;SDS011;55720;51.972;4.624;2023-03-31T16:31:02;2.50;;;1.35;;
35150;SDS011;55720;51.972;4.624;2023-03-31T16:33:30;5.70;;;1.52;;
35150;SDS011;55720;51.972;4.624;2023-03-31T16:36:18;3.70;;;1.65;;
35150;SDS011;55720;51.972;4.624;2023-03-31T16:38:44;8.35;;;1.67;;
35150;SDS011;55720;51.972;4.624;2023-03-31T16:41:09;7.97;;;1.60;;
35150;SDS011;55720;51.972;4.624;2023-03-31T16:43:35;9.23;;;1.40;;
35150;SDS011;55720;51.972;4.624;2023-03-31T16:46:01;5.82;;;1.13;;
35150;SDS011;55720;51.972;4.624;2023-03-31T16:48:28;8.40;;;1.38;;
35150;SDS011;55720;51.972;4.624;2023-03-31T16:50:57;6.40;;;1.30;;
35150;SDS011;55720;51.972;4.624;2023-03-31T16:53:28;5.13;;;1.60;;
35150;SDS011;55720;51.972;4.624;2023-03-31T16:55:55;5.57;;;1.60;;
35150;SDS011;55720;51.972;4.624;2023-03-31T16:58:21;6.20;;;1.52;;
35150;SDS011;55720;51.972;4.624;2023-03-31T17:00:52;7.05;;;1.42;;
35150;SDS011;55720;51.972;4.624;2023-03-31T17:03:18;7.75;;;1.45;;
35150;SDS011;55720;51.972;4.624;2023-03-31T17:05:45;6.03;;;1.50;;
35150;SDS011;55720;51.972;4.624;2023-03-31T17:08:15;7.32;;;1.70;;
35150;SDS011;55720;51.972;4.624;2023-03-31T17:10:41;6.75;;;1.80;;
35150;SDS011;55720;51.972;4.624;2023-03-31T17:13:14;3.30;;;1.55;;
35150;SDS011;55720;51.972;4.624;2023-03-31T17:15:40;6.45;;;2.17;;
35150;SDS011;55720;51.972;4.624;2023-03-31T17:18:05;10.63;;;2.50;;
35150;SDS011;55720;51.972;4.624;2023-03-31T17:20:31;4.50;;;2.47;;
35150;SDS011;55720;51.972;4.624;2023-03-31T17:22:56;3.47;;;2.10;;
35150;SDS011;55720;51.972;4.624;2023-03-31T17:25:22;7.50;;;2.17;;
35150;SDS011;55720;51.972;4.624;2023-03-31T17:27:47;6.47;;;2.08;;
35150;SDS011;55720;51.972;4.624;2023-03-31T17:30:13;9.05;;;2.28;;
35150;SDS011;55720;51.972;4.624;2023-03-31T17:32:39;10.05;;;2.58;;
35150;SDS011;55720;51.972;4.624;2023-03-31T17:35:05;10.82;;;2.40;;
35150;SDS011;55720;51.972;4.624;2023-03-31T17:37:31;14.55;;;3.28;;
35150;SDS011;55720;51.972;4.624;2023-03-31T17:39:57;6.38;;;2.15;;
35150;SDS011;55720;51.972;4.624;2023-03-31T17:42:22;9.05;;;2.50;;
35150;SDS011;55720;51.972;4.624;2023-03-31T17:44:48;9.43;;;2.58;;
35150;SDS011;55720;51.972;4.624;2023-03-31T17:47:15;7.35;;;1.90;;
35150;SDS011;55720;51.972;4.624;2023-03-31T17:49:41;8.95;;;2.40;;
35150;SDS011;55720;51.972;4.624;2023-03-31T17:52:07;11.95;;;2.25;;
35150;SDS011;55720;51.972;4.624;2023-03-31T17:54:32;7.57;;;2.25;;
35150;SDS011;55720;51.972;4.624;2023-03-31T17:56:58;10.63;;;2.90;;
35150;SDS011;55720;51.972;4.624;2023-03-31T17:59:23;10.13;;;3.03;;
35150;SDS011;55720;51.972;4.624;2023-03-31T18:01:50;10.23;;;2.67;;
35150;SDS011;55720;51.972;4.624;2023-03-31T18:04:16;10.70;;;3.05;;
35150;SDS011;55720;51.972;4.624;2023-03-31T18:06:41;9.63;;;2.47;;
35150;SDS011;55720;51.972;4.624;2023-03-31T18:09:09;11.40;;;3.20;;
35150;SDS011;55720;51.972;4.624;2023-03-31T18:11:35;17.05;;;3.05;;
35150;SDS011;55720;51.972;4.624;2023-03-31T18:14:01;15.65;;;3.60;;
35150;SDS011;55720;51.972;4.624;2023-03-31T18:16:27;14.90;;;3.05;;
35150;SDS011;55720;51.972;4.624;2023-03-31T18:18:54;17.77;;;3.40;;
35150;SDS011;55720;51.972;4.624;2023-03-31T18:21:20;10.18;;;3.35;;
35150;SDS011;55720;51.972;4.624;2023-03-31T18:23:47;11.30;;;2.67;;
35150;SDS011;55720;51.972;4.624;2023-03-31T18:26:17;17.60;;;3.97;;
35150;SDS011;55720;51.972;4.624;2023-03-31T18:28:43;15.80;;;2.90;;
35150;SDS011;55720;51.972;4.624;2023-03-31T18:31:09;19.35;;;4.22;;
35150;SDS011;55720;51.972;4.624;2023-03-31T18:33:36;15.00;;;3.30;;
35150;SDS011;55720;51.972;4.624;2023-03-31T18:36:02;12.32;;;2.90;;
35150;SDS011;55720;51.972;4.624;2023-03-31T18:38:28;14.95;;;3.58;;
35150;SDS011;55720;51.972;4.624;2023-03-31T18:40:53;10.20;;;3.35;;
35150;SDS011;55720;51.972;4.624;2023-03-31T18:43:19;13.25;;;3.40;;
35150;SDS011;55720;51.972;4.624;2023-03-31T18:45:51;11.60;;;3.20;;
35150;SDS011;55720;51.972;4.624;2023-03-31T18:48:19;14.18;;;3.35;;
35150;SDS011;55720;51.972;4.624;2023-03-31T18:50:49;10.00;;;2.78;;
35150;SDS011;55720;51.972;4.624;2023-03-31T18:53:16;22.77;;;3.65;;
35150;SDS011;55720;51.972;4.624;2023-03-31T18:55:43;14.77;;;2.83;;
35150;SDS011;55720;51.972;4.624;2023-03-31T18:58:12;14.95;;;3.17;;
35150;SDS011;55720;51.972;4.624;2023-03-31T19:00:39;12.43;;;2.90;;
35150;SDS011;55720;51.972;4.624;2023-03-31T19:03:05;9.85;;;2.78;;
35150;SDS011;55720;51.972;4.624;2023-03-31T19:05:30;10.48;;;3.30;;
35150;SDS011;55720;51.972;4.624;2023-03-31T19:07:56;8.43;;;3.20;;
35150;SDS011;55720;51.972;4.624;2023-03-31T19:10:22;13.60;;;3.97;;
35150;SDS011;55720;51.972;4.624;2023-03-31T19:12:47;11.75;;;3.80;;
35150;SDS011;55720;51.972;4.624;2023-03-31T19:15:13;15.45;;;3.88;;
35150;SDS011;55720;51.972;4.624;2023-03-31T19:17:39;14.73;;;4.10;;
35150;SDS011;55720;51.972;4.624;2023-03-31T19:20:05;17.10;;;4.22;;
35150;SDS011;55720;51.972;4.624;2023-03-31T19:22:32;24.55;;;4.65;;
35150;SDS011;55720;51.972;4.624;2023-03-31T19:24:57;20.02;;;4.80;;
35150;SDS011;55720;51.972;4.624;2023-03-31T19:27:22;14.15;;;4.47;;
35150;SDS011;55720;51.972;4.624;2023-03-31T19:29:48;10.50;;;3.75;;
35150;SDS011;55720;51.972;4.624;2023-03-31T19:32:14;17.25;;;3.60;;
35150;SDS011;55720;51.972;4.624;2023-03-31T19:34:40;18.25;;;4.00;;
35150;SDS011;55720;51.972;4.624;2023-03-31T19:37:06;11.77;;;3.15;;
35150;SDS011;55720;51.972;4.624;2023-03-31T19:39:32;11.57;;;2.60;;
35150;SDS011;55720;51.972;4.624;2023-03-31T19:41:57;13.30;;;2.60;;
35150;SDS011;55720;51.972;4.624;2023-03-31T19:44:23;13.18;;;2.78;;
35150;SDS011;55720;51.972;4.624;2023-03-31T19:46:48;6.10;;;2.53;;
35150;SDS011;55720;51.972;4.624;2023-03-31T19:49:14;9.98;;;2.72;;
35150;SDS011;55720;51.972;4.624;2023-03-31T19:51:39;10.02;;;2.47;;
35150;SDS011;55720;51.972;4.624;2023-03-31T19:54:05;13.75;;;2.03;;
35150;SDS011;55720;51.972;4.624;2023-03-31T19:56:31;13.90;;;2.40;;
35150;SDS011;55720;51.972;4.624;2023-03-31T19:58:56;18.27;;;2.63;;
35150;SDS011;55720;51.972;4.624;2023-03-31T20:01:24;13.32;;;2.75;;
35150;SDS011;55720;51.972;4.624;2023-03-31T20:03:51;16.10;;;2.97;;
35150;SDS011;55720;51.972;4.624;2023-03-31T20:06:17;16.50;;;2.38;;
35150;SDS011;55720;51.972;4.624;2023-03-31T20:08:50;22.80;;;3.50;;
35150;SDS011;55720;51.972;4.624;2023-03-31T20:11:17;18.08;;;2.45;;
35150;SDS011;55720;51.972;4.624;2023-03-31T20:13:43;19.45;;;2.47;;
35150;SDS011;55720;51.972;4.624;2023-03-31T20:16:11;16.30;;;2.40;;
35150;SDS011;55720;51.972;4.624;2023-03-31T20:18:38;14.25;;;2.72;;
35150;SDS011;55720;51.972;4.624;2023-03-31T20:21:05;19.98;;;2.47;;
35150;SDS011;55720;51.972;4.624;2023-03-31T20:23:33;24.60;;;3.50;;
35150;SDS011;55720;51.972;4.624;2023-03-31T20:26:00;27.00;;;4.20;;
35150;SDS011;55720;51.972;4.624;2023-03-31T20:28:26;35.42;;;4.63;;
35150;SDS011;55720;51.972;4.624;2023-03-31T20:30:52;34.50;;;3.85;;
35150;SDS011;55720;51.972;4.624;2023-03-31T20:33:21;33.83;;;4.28;;
35150;SDS011;55720;51.972;4.624;2023-03-31T20:35:47;26.95;;;3.83;;
35150;SDS011;55720;51.972;4.624;2023-03-31T20:38:22;31.00;;;3.53;;
35150;SDS011;55720;51.972;4.624;2023-03-31T20:40:47;21.20;;;3.63;;
35150;SDS011;55720;51.972;4.624;2023-03-31T20:43:13;34.72;;;3.65;;
35150;SDS011;55720;51.972;4.624;2023-03-31T20:45:38;25.98;;;3.67;;
35150;SDS011;55720;51.972;4.624;2023-03-31T20:48:03;24.95;;;3.75;;